Jones, LA

2:28 AM CDT on July 29, 2014 (GMT -0500)
MesoWest ARLA LA US UPR (MUP858) Elev 108 ft | 33.01 °N, 91.62 °W | Change Station

Current weather conditions updated 3 hours ago

Clear
Clear
74.0 °F
Feels Like 74.0 °F
N
-
Wind Variable Wind from North

Today is forecast to be Cooler than yesterday.

Today
High -- | Low -- °F
--% Chance of Precip.
Yesterday
High -- | Low -- °F
Precip. -- in
6:17 AM 8:07 PM
Waxing Crescent, 5% visible
Pressure 30.05 in
Visibility 10.0 miles
Clouds Clear
Dew Point Not available.
Humidity Not available.
Rainfall -999.00 in
Snow Depth Not available.
UV 0 out of 12
Pollen 4.80 out of 12
Air Quality Not available.
Flu Activity Not available.
METAR KBQP 290715Z AUTO 00000KT 10SM CLR 20/19 A3005 RMK AO2 T01960188

More Conditions Fewer Conditions

Pressure 30.05 in
Visibility 10.0 miles
Clouds Clear
Dew Point Not available.
Humidity Not available.
Rainfall -999.00 in
Snow Depth Not available.
UV 0 out of 12
Pollen 4.80 out of 12
Air Quality Not available.
Flu Activity Not available.
METAR KBQP 290715Z AUTO 00000KT 10SM CLR 20/19 A3005 RMK AO2 T01960188

More Conditions Fewer Conditions

Nowcast | as of 1:55 am CDT on July 29, 2014

Storms are beginning to develop around Oakdale in south central Louisiana this morning.... while a broken line of storms continue from Silsbee in southeast Texas around to Abbeville in eastern Vernon Parish. Some of these storms have already begun to move into the coastal waters. Storms will produce cloud to ground and cloud to water lightning along with gusty winds.

×

10-Day Weather Forecast

Almanac

Astronomy

Jul. 29, 2014 Rise Set
Actual Time 6:17 AM CDT 8:07 PM CDT
Civil Twilight 5:50 AM CDT 8:34 PM CDT
Nautical Twilight 5:17 AM CDT 9:07 PM CDT
Astronomical Twilight 4:42 AM CDT 9:42 PM CDT
Moon 8:43 AM CDT 9:32 PM CDT
Length of Visible Light 14h 44m
Length of Day
13h 49m
Tomorrow will be 1m 27s shorter.
Waxing Crescent, 5% of the Moon is Illuminated
Today
Waxing Crescent
Aug 3
First Quarter
Aug 10
Full
Aug 17
Last Quarter
Aug 25
New

Today's Extremes

State Highs State Lows

Community

WunderPhotos

Upload Photos

1,738,651 photos uploaded!

Nearby

Snow Depth

Station Depth Elevation
No new snow has been reported.

Earthquake Activity

City Distance Mag. Time & Date
No recent earthquake activity has been reported nearby.
Minimum magnitude displayed is 2.5.

Coastal Water Temperatures

Place Temperature
No Stations Reporting

Nearby Weather Stations

Station Location Temp. Dew Point Humidity Wind Precip. Elev Updated Type
MesoWest GALION , Mer Rouge, LA 69 °F - - North  at  - 0.00 in / hr 97 ft 1:40 AM CDT MADIS
Beekman, Bastrop, LA 68.4 °F 62 °F 81% NW  at  0.0 mph 0.00 in / hr 134 ft 2:27 AM CDT Normal

Show More Stations Show Fewer Stations